KLBL

Liberal Mid-America Regional Airport

Airport
ICAO code
KLBL
IATA Code
LBL
Summary
ICAO Region
NAM
ICAO Territory
Location

Liberal, Kansas

Serving
Liberal
Elevation
2885 ft
Coordinates
37° 2' 39" N , 100° 57' 36" W
KCC
Airport CFIT
Altimeter Temperature Error Correction
Metar
KLBL 181556Z AUTO 36021G26KT 10SM OVC018 07/03 A3019 RMK AO2 PK WND 36029/1539 SLP216 T00720028

Liberal Mid-America Regional Airport, formerly known as Liberal Municipal Airport, is a public-use airport located 2 nm west of the central business district of Liberal, a city in Seward County, Kansas, USA.

Runways

Designator Length Width Surface Rops
4/22 1744 46 CONC-F Yes/Yes
17/35 2166 46 ASP Yes/Yes

Airport map

Aerial View

SKYbrary Partners:

Safety knowledge contributed by: